Love Boat — OT3861 — position and weather

sailwx.info

Track history (hours):
 
Tides and Currents Weather Stations Pressure Air Temp Water Temp Dewpoint Dewpoint Depression Visibility Wind Speed Wind Dir Waves Ship Positions

Love Boat

Last reported at 2015-Jan-29 15:24 UTC. Time now 2015-Jan-29 16:19 UTC.
Position N 49°19' E 008°28'.

Length 110 m; draft 3 m.

Type: Ship. MMSI: 205386190.

Date/timePositionNaut miles runAvg speedWind from/ knotsBaromVisibWave heightAir tempDewpointWater temp
2015-Jan-29 15:24N 49°19' E 008°28'0 0.0
2015-Jan-29 14:26N 49°19' E 008°28'0 0.0
2015-Jan-29 13:24N 49°19' E 008°28'0 0.0
2015-Jan-29 12:28N 49°19' E 008°28'0 0.0
2015-Jan-29 11:28N 49°19' E 008°28'0 0.0
2015-Jan-29 10:30N 49°19' E 008°28'0 0.0
2015-Jan-29 08:32N 49°19' E 008°28'0 0.0
2015-Jan-29 07:33N 49°19' E 008°28'0 0.0
2015-Jan-29 06:32N 49°19' E 008°28'0 0.0
2015-Jan-29 05:30N 49°19' E 008°28'0 0.0
2015-Jan-29 04:34N 49°19' E 008°28'0 0.0
2015-Jan-29 03:33N 49°19' E 008°28'0 0.0
2015-Jan-29 02:33N 49°19' E 008°28'0 0.0
2015-Jan-29 01:34N 49°19' E 008°28'0 0.0
2015-Jan-29 00:33N 49°19' E 008°28'0 0.0
2015-Jan-28 23:33N 49°19' E 008°28'0 0.0
2015-Jan-28 22:33N 49°19' E 008°28'0 0.0
2015-Jan-28 21:33N 49°19' E 008°28'0 0.0
2015-Jan-28 20:33N 49°19' E 008°28'0 0.0
2015-Jan-28 19:33N 49°19' E 008°28'0 0.0
2015-Jan-28 18:33N 49°19' E 008°28'0 0.0
2015-Jan-28 17:33N 49°19' E 008°28'0 0.0
2015-Jan-28 16:33N 49°19' E 008°28'0 0.0
2015-Jan-28 15:34N 49°19' E 008°28'0 0.0
2015-Jan-28 14:33N 49°19' E 008°28'0 0.0
2015-Jan-28 13:34N 49°19' E 008°28'0 0.0
2015-Jan-28 12:33N 49°19' E 008°28'0 0.0
2015-Jan-28 11:32N 49°19' E 008°28'0 0.0
2015-Jan-28 10:33N 49°19' E 008°28'0 0.0
2015-Jan-28 09:33N 49°19' E 008°28'0 0.0
2015-Jan-28 08:33N 49°19' E 008°28'0 0.0
2015-Jan-28 07:33N 49°19' E 008°28'0 0.0
2015-Jan-28 06:33N 49°19' E 008°28'0 0.0
2015-Jan-28 05:33N 49°19' E 008°28'0 0.0
2015-Jan-28 04:33N 49°19' E 008°28'0 0.0
2015-Jan-28 03:34N 49°19' E 008°28'0 0.0
2015-Jan-28 02:33N 49°19' E 008°28'0 0.0
2015-Jan-28 01:33N 49°19' E 008°28'0 0.0
2015-Jan-28 00:34N 49°19' E 008°28'0 0.0
2015-Jan-27 23:33N 49°19' E 008°28'0 0.0
2015-Jan-27 22:34N 49°19' E 008°28'0 0.0
2015-Jan-27 21:33N 49°19' E 008°28'0 0.0
2015-Jan-27 20:33N 49°19' E 008°28'0 0.0
2015-Jan-27 19:33N 49°19' E 008°28'0 0.0
2015-Jan-27 18:33N 49°19' E 008°28'0 0.0
2015-Jan-27 17:33N 49°19' E 008°28'0 0.0
2015-Jan-27 16:34N 49°19' E 008°28'0 0.0
2015-Jan-27 15:33N 49°19' E 008°28'0 0.0
2015-Jan-27 14:33N 49°19' E 008°28'0 0.0
2015-Jan-27 13:33N 49°19' E 008°28'0 0.0
2015-Jan-27 12:33N 49°19' E 008°28'0 0.0
2015-Jan-27 11:33N 49°19' E 008°28'0 0.0
2015-Jan-27 10:34N 49°19' E 008°28'0 0.0
2015-Jan-27 09:33N 49°19' E 008°28'0 0.0
2015-Jan-27 08:33N 49°19' E 008°28'0 0.0
2015-Jan-27 07:34N 49°19' E 008°28'0 0.0
2015-Jan-26 19:21N 49°19' E 008°28'2 2.8
2015-Jan-26 18:33N 49°16' E 008°27'9 8.9
2015-Jan-26 17:34N 49°08' E 008°22'10 9.5
2015-Jan-26 16:33N 48°59' E 008°17'10 9.3
2015-Jan-26 15:31N 48°52' E 008°07'5 4.7
2015-Jan-26 14:32N 48°48' E 008°04'7 7.0
2015-Jan-26 13:33N 48°43' E 007°57'3 0.1
2015-Jan-24 20:15N 48°40' E 007°54'2 2.6
2015-Jan-24 19:30N 48°42' E 007°56'5 4.5
2015-Jan-24 18:31N 48°46' E 007°60'5 5.4
2015-Jan-24 17:33N 48°49' E 008°06'  
2015-Jan-22 12:29N 48°47' E 008°02'0 0.0
2015-Jan-22 11:13N 48°47' E 008°02'0 0.0
2015-Jan-22 10:33N 48°47' E 008°02'0 0.0
2015-Jan-22 09:19N 48°47' E 008°02'0 0.0
2015-Jan-22 08:33N 48°47' E 008°02'0 0.0
2015-Jan-22 07:29N 48°47' E 008°02'0 0.0
2015-Jan-22 06:33N 48°47' E 008°02'0 0.0
2015-Jan-22 05:33N 48°47' E 008°02'0 0.0
2015-Jan-22 04:33N 48°47' E 008°02'0 0.0
2015-Jan-22 03:32N 48°47' E 008°02'0 0.0
2015-Jan-22 02:33N 48°47' E 008°02'0 0.0
2015-Jan-22 01:31N 48°47' E 008°02'0 0.0
2015-Jan-22 00:31N 48°47' E 008°02'0 0.0
2015-Jan-21 23:29N 48°47' E 008°02'0 0.0
2015-Jan-21 22:41N 48°47' E 008°02'0 0.0
2015-Jan-21 21:09N 48°47' E 008°02'0 0.0
2015-Jan-21 20:26N 48°47' E 008°02'0 0.0
2015-Jan-21 19:31N 48°47' E 008°02'0 0.0
2015-Jan-21 18:28N 48°47' E 008°02'4 3.3
2015-Jan-21 17:07N 48°50' E 008°07'3 4.8
2015-Jan-21 16:33N 48°53' E 008°08'5 4.8
2015-Jan-21 15:32N 48°57' E 008°11'4 4.5
2015-Jan-21 14:33N 48°60' E 008°17'5 4.7
2015-Jan-21 13:34N 49°04' E 008°19'5 4.6
2015-Jan-21 12:33N 49°08' E 008°22'5 4.6
2015-Jan-21 11:33N 49°13' E 008°23'5 4.9
2015-Jan-21 10:33N 49°17' E 008°28'4 3.5
2015-Jan-21 09:33N 49°20' E 008°28'  
Track history (hours):
 
Tides and Currents Weather Stations Pressure Air Temp Water Temp Dewpoint Dewpoint Depression Visibility Wind Speed Wind Dir Waves Ship Positions

Love Boat

Last reported at 2015-Jan-29 15:24 UTC. Time now 2015-Jan-29 16:19 UTC.
Position N 49°19' E 008°28'.

Length 110 m; draft 3 m.

Type: Ship. MMSI: 205386190.

Date/timePositionNaut miles runAvg speedWind from/ knotsBaromVisibWave heightAir tempDewpointWater temp
2015-Jan-29 15:24N 49°19' E 008°28'0 0.0
2015-Jan-29 14:26N 49°19' E 008°28'0 0.0
2015-Jan-29 13:24N 49°19' E 008°28'0 0.0
2015-Jan-29 12:28N 49°19' E 008°28'0 0.0
2015-Jan-29 11:28N 49°19' E 008°28'0 0.0
2015-Jan-29 10:30N 49°19' E 008°28'0 0.0
2015-Jan-29 08:32N 49°19' E 008°28'0 0.0
2015-Jan-29 07:33N 49°19' E 008°28'0 0.0
2015-Jan-29 06:32N 49°19' E 008°28'0 0.0
2015-Jan-29 05:30N 49°19' E 008°28'0 0.0
2015-Jan-29 04:34N 49°19' E 008°28'0 0.0
2015-Jan-29 03:33N 49°19' E 008°28'0 0.0
2015-Jan-29 02:33N 49°19' E 008°28'0 0.0
2015-Jan-29 01:34N 49°19' E 008°28'0 0.0
2015-Jan-29 00:33N 49°19' E 008°28'0 0.0
2015-Jan-28 23:33N 49°19' E 008°28'0 0.0
2015-Jan-28 22:33N 49°19' E 008°28'0 0.0
2015-Jan-28 21:33N 49°19' E 008°28'0 0.0
2015-Jan-28 20:33N 49°19' E 008°28'0 0.0
2015-Jan-28 19:33N 49°19' E 008°28'0 0.0
2015-Jan-28 18:33N 49°19' E 008°28'0 0.0
2015-Jan-28 17:33N 49°19' E 008°28'0 0.0
2015-Jan-28 16:33N 49°19' E 008°28'0 0.0
2015-Jan-28 15:34N 49°19' E 008°28'0 0.0
2015-Jan-28 14:33N 49°19' E 008°28'0 0.0
2015-Jan-28 13:34N 49°19' E 008°28'0 0.0
2015-Jan-28 12:33N 49°19' E 008°28'0 0.0
2015-Jan-28 11:32N 49°19' E 008°28'0 0.0
2015-Jan-28 10:33N 49°19' E 008°28'0 0.0
2015-Jan-28 09:33N 49°19' E 008°28'0 0.0
2015-Jan-28 08:33N 49°19' E 008°28'0 0.0
2015-Jan-28 07:33N 49°19' E 008°28'0 0.0
2015-Jan-28 06:33N 49°19' E 008°28'0 0.0
2015-Jan-28 05:33N 49°19' E 008°28'0 0.0
2015-Jan-28 04:33N 49°19' E 008°28'0 0.0
2015-Jan-28 03:34N 49°19' E 008°28'0 0.0
2015-Jan-28 02:33N 49°19' E 008°28'0 0.0
2015-Jan-28 01:33N 49°19' E 008°28'0 0.0
2015-Jan-28 00:34N 49°19' E 008°28'0 0.0
2015-Jan-27 23:33N 49°19' E 008°28'0 0.0
2015-Jan-27 22:34N 49°19' E 008°28'0 0.0
2015-Jan-27 21:33N 49°19' E 008°28'0 0.0
2015-Jan-27 20:33N 49°19' E 008°28'0 0.0
2015-Jan-27 19:33N 49°19' E 008°28'0 0.0
2015-Jan-27 18:33N 49°19' E 008°28'0 0.0
2015-Jan-27 17:33N 49°19' E 008°28'0 0.0
2015-Jan-27 16:34N 49°19' E 008°28'0 0.0
2015-Jan-27 15:33N 49°19' E 008°28'0 0.0
2015-Jan-27 14:33N 49°19' E 008°28'0 0.0
2015-Jan-27 13:33N 49°19' E 008°28'0 0.0
2015-Jan-27 12:33N 49°19' E 008°28'0 0.0
2015-Jan-27 11:33N 49°19' E 008°28'0 0.0
2015-Jan-27 10:34N 49°19' E 008°28'0 0.0
2015-Jan-27 09:33N 49°19' E 008°28'0 0.0
2015-Jan-27 08:33N 49°19' E 008°28'0 0.0
2015-Jan-27 07:34N 49°19' E 008°28'0 0.0
2015-Jan-26 19:21N 49°19' E 008°28'2 2.8
2015-Jan-26 18:33N 49°16' E 008°27'9 8.9
2015-Jan-26 17:34N 49°08' E 008°22'10 9.5
2015-Jan-26 16:33N 48°59' E 008°17'10 9.3
2015-Jan-26 15:31N 48°52' E 008°07'5 4.7
2015-Jan-26 14:32N 48°48' E 008°04'7 7.0
2015-Jan-26 13:33N 48°43' E 007°57'3 0.1
2015-Jan-24 20:15N 48°40' E 007°54'2 2.6
2015-Jan-24 19:30N 48°42' E 007°56'5 4.5
2015-Jan-24 18:31N 48°46' E 007°60'5 5.4
2015-Jan-24 17:33N 48°49' E 008°06'  
2015-Jan-22 12:29N 48°47' E 008°02'0 0.0
2015-Jan-22 11:13N 48°47' E 008°02'0 0.0
2015-Jan-22 10:33N 48°47' E 008°02'0 0.0
2015-Jan-22 09:19N 48°47' E 008°02'0 0.0
2015-Jan-22 08:33N 48°47' E 008°02'0 0.0
2015-Jan-22 07:29N 48°47' E 008°02'0 0.0
2015-Jan-22 06:33N 48°47' E 008°02'0 0.0
2015-Jan-22 05:33N 48°47' E 008°02'0 0.0
2015-Jan-22 04:33N 48°47' E 008°02'0 0.0
2015-Jan-22 03:32N 48°47' E 008°02'0 0.0
2015-Jan-22 02:33N 48°47' E 008°02'0 0.0
2015-Jan-22 01:31N 48°47' E 008°02'0 0.0
2015-Jan-22 00:31N 48°47' E 008°02'0 0.0
2015-Jan-21 23:29N 48°47' E 008°02'0 0.0
2015-Jan-21 22:41N 48°47' E 008°02'0 0.0
2015-Jan-21 21:09N 48°47' E 008°02'0 0.0
2015-Jan-21 20:26N 48°47' E 008°02'0 0.0
2015-Jan-21 19:31N 48°47' E 008°02'0 0.0
2015-Jan-21 18:28N 48°47' E 008°02'4 3.3
2015-Jan-21 17:07N 48°50' E 008°07'3 4.8
2015-Jan-21 16:33N 48°53' E 008°08'5 4.8
2015-Jan-21 15:32N 48°57' E 008°11'4 4.5
2015-Jan-21 14:33N 48°60' E 008°17'5 4.7
2015-Jan-21 13:34N 49°04' E 008°19'5 4.6
2015-Jan-21 12:33N 49°08' E 008°22'5 4.6
2015-Jan-21 11:33N 49°13' E 008°23'5 4.9
2015-Jan-21 10:33N 49°17' E 008°28'4 3.5
2015-Jan-21 09:33N 49°20' E 008°28'  

Dump ship's entire track history